createdAt,value
2016-09-19T13:33:04.868Z,1030.29
2016-09-19T13:34:04.514Z,1030.31
2016-09-19T13:35:04.514Z,1030.37
2016-09-19T13:36:04.511Z,1030.35
2016-09-19T13:37:04.512Z,1030.33
2016-09-19T13:38:04.511Z,1030.37
2016-09-19T13:39:04.512Z,1030.35
2016-09-19T13:40:04.510Z,1030.36
2016-09-19T13:41:04.508Z,1030.37
2016-09-19T13:42:04.506Z,1030.36
2016-09-19T13:43:04.506Z,1030.28
2016-09-19T13:44:04.504Z,1030.31
2016-09-19T13:45:04.705Z,1030.27
2016-09-19T13:46:04.503Z,1030.29
2016-09-19T13:47:04.503Z,1030.32
2016-09-19T13:48:04.500Z,1030.28
2016-09-19T13:49:04.499Z,1030.31
2016-09-19T13:50:04.500Z,1030.31
2016-09-19T13:51:04.495Z,1030.3
2016-09-19T13:52:04.497Z,1030.31
2016-09-19T13:53:04.496Z,1030.28
2016-09-19T13:54:05.015Z,1030.3
2016-09-19T13:55:04.493Z,1030.27
2016-09-19T13:56:04.599Z,1030.27
2016-09-19T13:57:04.489Z,1030.28
2016-09-19T13:58:04.487Z,1030.23
2016-09-19T13:59:04.488Z,1030.21
2016-09-19T14:00:04.485Z,1030.24
2016-09-19T14:01:04.486Z,1030.19
2016-09-19T14:02:04.482Z,1030.3
2016-09-19T14:03:04.483Z,1030.26
2016-09-19T14:04:04.480Z,1030.33
2016-09-19T14:05:04.478Z,1030.3
2016-09-19T14:06:04.478Z,1030.31
2016-09-19T14:07:04.478Z,1030.33
2016-09-19T14:08:04.477Z,1030.4
2016-09-19T14:09:04.474Z,1030.31
2016-09-19T14:10:04.475Z,1030.34
2016-09-19T14:11:04.473Z,1030.38
2016-09-19T14:12:04.471Z,1030.44
2016-09-19T14:13:04.469Z,1030.43
2016-09-19T14:14:04.467Z,1030.36
2016-09-19T14:15:04.468Z,1030.43
2016-09-19T14:16:04.466Z,1030.38
2016-09-19T14:17:04.466Z,1030.46
2016-09-19T14:18:04.465Z,1030.53
2016-09-19T14:19:04.468Z,1030.47
2016-09-19T14:20:04.460Z,1030.54
2016-09-19T14:21:04.458Z,1030.54
2016-09-19T14:22:04.459Z,1030.59
2016-09-19T14:23:04.456Z,1030.55
2016-09-19T14:24:04.455Z,1030.55
2016-09-19T14:25:04.454Z,1030.57
2016-09-19T14:26:04.455Z,1030.58
2016-09-19T14:27:04.450Z,1030.63
2016-09-19T14:28:04.451Z,1030.64
2016-09-19T14:29:04.450Z,1030.65
2016-09-19T14:30:04.448Z,1030.63
2016-09-19T14:31:04.445Z,1030.61
2016-09-19T14:32:04.445Z,1030.63
2016-09-19T14:33:04.442Z,1030.59
2016-09-19T14:34:04.442Z,1030.6
2016-09-19T14:35:04.441Z,1030.6
2016-09-19T14:36:04.439Z,1030.58
2016-09-19T14:37:04.437Z,1030.62
2016-09-19T14:38:04.434Z,1030.69
2016-09-19T14:39:04.432Z,1030.62
2016-09-19T14:40:04.432Z,1030.63
2016-09-19T14:42:04.430Z,1030.63
2016-09-19T14:43:04.426Z,1030.58
2016-09-19T14:44:04.425Z,1030.57
2016-09-19T14:45:04.425Z,1030.6
2016-09-19T14:46:04.423Z,1030.56
2016-09-19T14:47:04.421Z,1030.57
2016-09-19T14:48:04.418Z,1030.55
2016-09-19T14:49:04.418Z,1030.59
2016-09-19T14:50:04.417Z,1030.54
2016-09-19T14:51:04.413Z,1030.53
2016-09-19T14:52:04.412Z,1030.49
2016-09-19T14:53:04.412Z,1030.43
2016-09-19T14:54:04.408Z,1030.44
2016-09-19T14:55:04.409Z,1030.36
2016-09-19T14:56:04.404Z,1030.38
2016-09-19T14:57:04.406Z,1030.38
2016-09-19T14:58:04.402Z,1030.39
2016-09-19T14:59:04.403Z,1030.39
2016-09-19T15:00:04.399Z,1030.39
2016-09-19T15:01:05.170Z,1030.43
2016-09-19T15:02:05.557Z,1030.46
2016-09-19T15:03:04.395Z,1030.39
2016-09-19T15:04:04.392Z,1030.34
2016-09-19T15:05:04.392Z,1030.38
2016-09-19T15:06:04.391Z,1030.32
2016-09-19T15:07:04.389Z,1030.35
2016-09-19T15:08:04.388Z,1030.28
2016-09-19T15:09:04.386Z,1030.19
2016-09-19T15:10:05.248Z,1030.17
2016-09-19T15:11:05.701Z,1030.17
2016-09-19T15:12:04.382Z,1030.11
2016-09-19T15:13:04.396Z,1030.07
2016-09-19T15:14:04.381Z,1030.04
2016-09-19T15:15:04.376Z,1030.06
2016-09-19T15:16:04.376Z,1030.06
2016-09-19T15:17:04.376Z,1030.01
2016-09-19T15:18:04.373Z,1030.03
2016-09-19T15:19:04.371Z,1030.06
2016-09-19T15:20:04.370Z,1030.14
2016-09-19T15:21:04.369Z,1030.2
2016-09-19T15:22:04.369Z,1030.13
2016-09-19T15:23:04.364Z,1030.18
2016-09-19T15:24:04.367Z,1030.19
2016-09-19T15:25:04.365Z,1030.22
2016-09-19T15:26:04.361Z,1030.22
2016-09-19T15:27:04.362Z,1030.25
2016-09-19T15:28:04.359Z,1030.25
2016-09-19T15:29:04.358Z,1030.23
2016-09-19T15:30:04.356Z,1030.22
2016-09-19T15:31:04.357Z,1030.22
2016-09-19T15:32:04.353Z,1030.23
2016-09-19T15:33:04.454Z,1030.21
2016-09-19T15:34:04.352Z,1030.29
2016-09-19T15:35:04.351Z,1030.27
2016-09-19T15:36:04.350Z,1030.29
2016-09-19T15:37:04.348Z,1030.29
2016-09-19T15:38:04.347Z,1030.28
2016-09-19T15:39:04.344Z,1030.33
2016-09-19T15:40:04.341Z,1030.38
2016-09-19T15:41:04.343Z,1030.38
2016-09-19T15:42:04.342Z,1030.47
2016-09-19T15:43:04.344Z,1030.51
2016-09-19T15:44:04.336Z,1030.5
2016-09-19T15:45:04.337Z,1030.56
2016-09-19T15:46:04.336Z,1030.56
2016-09-19T15:47:04.333Z,1030.61
2016-09-19T15:48:04.331Z,1030.62
2016-09-19T15:49:04.329Z,1030.72
2016-09-19T15:51:05.328Z,1030.75
2016-09-19T15:52:04.326Z,1030.79
2016-09-19T15:53:04.324Z,1030.82
2016-09-19T15:54:04.338Z,1030.83
2016-09-19T15:55:04.319Z,1030.84
2016-09-19T15:56:04.319Z,1030.83
2016-09-19T15:57:04.316Z,1030.97
2016-09-19T15:58:04.315Z,1030.91
2016-09-19T15:59:04.313Z,1030.99
2016-09-19T16:00:04.314Z,1030.98
2016-09-19T16:01:04.310Z,1031.02
2016-09-19T16:02:04.459Z,1031.11
2016-09-19T16:03:04.308Z,1031.1
2016-09-19T16:04:04.305Z,1031.13
2016-09-19T16:05:04.302Z,1031.11
2016-09-19T16:06:04.302Z,1031.18
2016-09-19T16:07:04.299Z,1031.16
2016-09-19T16:08:04.310Z,1031.14
2016-09-19T16:09:04.293Z,1031.15
2016-09-19T16:10:04.293Z,1031.13
2016-09-19T16:11:04.291Z,1031.13
2016-09-19T16:12:04.288Z,1031.15
2016-09-19T16:13:04.286Z,1031.09
2016-09-19T16:14:04.286Z,1031.14
2016-09-19T16:15:04.284Z,1031.11
2016-09-19T16:16:04.280Z,1031.11
2016-09-19T16:17:04.279Z,1031.13
2016-09-19T16:18:04.277Z,1031.17
2016-09-19T16:19:04.273Z,1031.14
2016-09-19T16:20:04.273Z,1031.13
2016-09-19T16:21:05.038Z,1031.13
2016-09-19T16:22:04.269Z,1031.15
2016-09-19T16:23:04.268Z,1031.17
2016-09-19T16:24:04.264Z,1031.18
2016-09-19T16:25:04.261Z,1031.18
2016-09-19T16:26:04.260Z,1031.23
2016-09-19T16:27:04.256Z,1031.3
2016-09-19T16:28:04.256Z,1031.32
2016-09-19T16:29:04.254Z,1031.33
2016-09-19T16:30:05.000Z,1031.39
2016-09-19T16:31:04.245Z,1031.41
2016-09-19T16:32:04.247Z,1031.42
2016-09-19T16:33:04.244Z,1031.48
2016-09-19T16:34:04.243Z,1031.49
2016-09-19T16:35:04.237Z,1031.54
2016-09-19T16:36:04.235Z,1031.57
2016-09-19T16:37:04.235Z,1031.6
2016-09-19T16:38:04.231Z,1031.62
2016-09-19T16:39:04.230Z,1031.65
2016-09-19T16:40:04.225Z,1031.72
2016-09-19T16:41:04.225Z,1031.74
2016-09-19T16:42:04.220Z,1031.78
2016-09-19T16:43:04.219Z,1031.77
2016-09-19T16:44:04.217Z,1031.83
2016-09-19T16:45:04.213Z,1031.93
2016-09-19T16:46:04.210Z,1031.94
2016-09-19T16:47:04.210Z,1031.97
2016-09-19T16:48:04.204Z,1032.04
2016-09-19T16:49:04.204Z,1032.05
2016-09-19T16:50:04.201Z,1032.08
2016-09-19T16:51:04.199Z,1032.16
2016-09-19T16:52:04.194Z,1032.15
2016-09-19T16:53:04.192Z,1032.18
2016-09-19T16:54:04.188Z,1032.26
2016-09-19T16:55:04.185Z,1032.26
2016-09-19T16:56:04.184Z,1032.28
2016-09-19T16:57:04.181Z,1032.25
2016-09-19T16:58:04.176Z,1032.31
2016-09-19T16:59:04.175Z,1032.4
2016-09-19T17:00:04.173Z,1032.37
2016-09-19T17:01:04.169Z,1032.44
2016-09-19T17:02:04.164Z,1032.44
2016-09-19T17:03:04.162Z,1032.44
2016-09-19T17:04:04.160Z,1032.47
2016-09-19T17:05:04.157Z,1032.52
2016-09-19T17:06:04.152Z,1032.47
2016-09-19T17:07:04.149Z,1032.55
2016-09-19T17:08:04.147Z,1032.56
2016-09-19T17:09:04.143Z,1032.59
2016-09-19T17:11:04.686Z,1032.63
2016-09-19T17:12:04.135Z,1032.63
2016-09-19T17:13:04.131Z,1032.7
2016-09-19T17:14:04.129Z,1032.68
2016-09-19T17:15:04.124Z,1032.72
2016-09-19T17:16:04.120Z,1032.74
2016-09-19T17:17:04.116Z,1032.74
2016-09-19T17:18:04.313Z,1032.76
2016-09-19T17:19:04.109Z,1032.79
2016-09-19T17:20:04.105Z,1032.88
2016-09-19T17:21:04.101Z,1032.99
2016-09-19T17:22:04.101Z,1032.95
2016-09-19T17:23:04.097Z,1032.94
2016-09-19T17:24:04.091Z,1032.99
2016-09-19T17:25:04.088Z,1033.02
2016-09-19T17:26:04.083Z,1033.04
2016-09-19T17:27:04.085Z,1033.02
2016-09-19T17:28:04.077Z,1033.06
2016-09-19T17:29:04.076Z,1033.08
2016-09-19T17:30:04.070Z,1033.08
2016-09-19T17:31:04.068Z,1033.11
2016-09-19T17:32:04.064Z,1033.16
2016-09-19T17:33:04.059Z,1033.19
2016-09-19T17:34:04.057Z,1033.19
2016-09-19T17:35:04.052Z,1033.2
2016-09-19T17:36:05.625Z,1033.19
2016-09-19T17:37:04.230Z,1033.23
2016-09-19T17:38:04.835Z,1033.24
2016-09-19T17:39:04.037Z,1033.26
2016-09-19T17:40:04.036Z,1033.29
2016-09-19T17:41:04.031Z,1033.36
2016-09-19T17:42:04.025Z,1033.39
2016-09-19T17:43:04.023Z,1033.37
2016-09-19T17:44:04.017Z,1033.4
2016-09-19T17:45:05.207Z,1033.37
2016-09-19T17:46:04.009Z,1033.4
2016-09-19T17:47:04.725Z,1033.37
2016-09-19T17:48:04.002Z,1033.4
2016-09-19T17:49:04.005Z,1033.41
2016-09-19T17:50:03.994Z,1033.46
2016-09-19T17:51:03.992Z,1033.5
2016-09-19T17:52:03.985Z,1033.48
2016-09-19T17:53:03.981Z,1033.51
2016-09-19T17:54:03.978Z,1033.56
2016-09-19T17:55:03.973Z,1033.55
2016-09-19T17:56:03.971Z,1033.62
2016-09-19T17:57:03.965Z,1033.64
2016-09-19T17:58:03.965Z,1033.7
2016-09-19T17:59:03.956Z,1033.71
2016-09-19T18:00:03.952Z,1033.72
2016-09-19T18:01:03.948Z,1033.79
2016-09-19T18:02:03.944Z,1033.85
2016-09-19T18:03:03.939Z,1033.88
2016-09-19T18:04:03.937Z,1033.88
2016-09-19T18:05:03.932Z,1033.95
2016-09-19T18:06:03.928Z,1033.94
2016-09-19T18:07:03.923Z,1033.97
2016-09-19T18:08:03.918Z,1034
2016-09-19T18:09:03.915Z,1034.01
2016-09-19T18:10:03.910Z,1034.08
2016-09-19T18:11:03.904Z,1034.1
2016-09-19T18:12:03.902Z,1034.16
2016-09-19T18:13:03.896Z,1034.16
2016-09-19T18:14:03.890Z,1034.16
2016-09-19T18:15:03.886Z,1034.24
2016-09-19T18:16:03.882Z,1034.23
2016-09-19T18:17:03.876Z,1034.27
2016-09-19T18:18:03.872Z,1034.28
2016-09-19T18:19:03.870Z,1034.27
2016-09-19T18:20:03.863Z,1034.31
2016-09-19T18:21:03.860Z,1034.29
2016-09-19T18:22:03.853Z,1034.29
2016-09-19T18:23:03.851Z,1034.32
2016-09-19T18:24:03.845Z,1034.35
2016-09-19T18:25:03.842Z,1034.37
2016-09-19T18:26:03.835Z,1034.39
2016-09-19T18:27:04.031Z,1034.42
2016-09-19T18:28:03.825Z,1034.42
2016-09-19T18:29:03.822Z,1034.42
2016-09-19T18:30:03.818Z,1034.46
2016-09-19T18:31:03.813Z,1034.5
2016-09-19T18:32:03.808Z,1034.52
2016-09-19T18:33:03.802Z,1034.59
2016-09-19T18:34:03.800Z,1034.55
2016-09-19T18:35:04.345Z,1034.63
2016-09-19T18:36:03.787Z,1034.62
2016-09-19T18:37:03.785Z,1034.64
2016-09-19T18:38:03.883Z,1034.65
2016-09-19T18:39:03.773Z,1034.7
2016-09-19T18:40:03.769Z,1034.74
2016-09-19T18:41:03.766Z,1034.75
2016-09-19T18:42:03.761Z,1034.81
2016-09-19T18:43:03.753Z,1034.8
2016-09-19T18:44:03.749Z,1034.85
2016-09-19T18:45:03.745Z,1034.86
2016-09-19T18:46:03.740Z,1034.89
2016-09-19T18:47:03.736Z,1034.91
2016-09-19T18:48:03.733Z,1034.89
2016-09-19T18:49:03.727Z,1034.94
2016-09-19T18:50:03.722Z,1034.96
2016-09-19T18:51:03.717Z,1034.99
2016-09-19T18:52:03.710Z,1035.02
2016-09-19T18:53:03.705Z,1035.04
2016-09-19T18:54:03.699Z,1035.08
2016-09-19T18:55:03.694Z,1035.06
2016-09-19T18:56:03.692Z,1035.11
2016-09-19T18:57:04.335Z,1035.2
2016-09-19T18:58:03.680Z,1035.13
2016-09-19T18:59:03.677Z,1035.17
2016-09-19T19:00:03.672Z,1035.12
2016-09-19T19:01:03.663Z,1035.16
2016-09-19T19:02:03.661Z,1035.2
2016-09-19T19:03:03.656Z,1035.14
2016-09-19T19:04:03.663Z,1035.17
2016-09-19T19:05:03.645Z,1035.14
2016-09-19T19:06:04.277Z,1035.17
2016-09-19T19:07:03.708Z,1035.19
2016-09-19T19:08:03.628Z,1035.17
2016-09-19T19:09:03.626Z,1035.2
2016-09-19T19:10:03.627Z,1035.16
2016-09-19T19:11:03.616Z,1035.17
2016-09-19T19:12:03.608Z,1035.21
2016-09-19T19:13:03.602Z,1035.2
2016-09-19T19:14:03.600Z,1035.22
2016-09-19T19:15:03.592Z,1035.24
2016-09-19T19:16:03.587Z,1035.25
2016-09-19T19:17:03.584Z,1035.22
2016-09-19T19:18:03.576Z,1035.23
2016-09-19T19:19:03.572Z,1035.27
2016-09-19T19:20:03.567Z,1035.25
2016-09-19T19:21:03.563Z,1035.28
2016-09-19T19:22:03.555Z,1035.25
2016-09-19T19:23:03.549Z,1035.29
2016-09-19T19:24:03.544Z,1035.26
2016-09-19T19:25:03.546Z,1035.32
2016-09-19T19:26:03.536Z,1035.34
2016-09-19T19:27:03.528Z,1035.32
2016-09-19T19:28:03.523Z,1035.37
2016-09-19T19:29:03.520Z,1035.35
2016-09-19T19:30:03.513Z,1035.36
2016-09-19T19:31:03.506Z,1035.35
2016-09-19T19:32:03.504Z,1035.34
2016-09-19T19:33:03.508Z,1035.35
2016-09-19T19:34:03.507Z,1035.36
2016-09-19T19:35:03.486Z,1035.37
2016-09-19T19:36:03.479Z,1035.33
2016-09-19T19:37:03.475Z,1035.36
2016-09-19T19:38:03.470Z,1035.36
2016-09-19T19:39:03.462Z,1035.41
2016-09-19T19:40:03.459Z,1035.39
2016-09-19T19:41:03.453Z,1035.4
2016-09-19T19:42:03.445Z,1035.44
2016-09-19T19:43:03.443Z,1035.41
2016-09-19T19:44:04.035Z,1035.46
2016-09-19T19:45:03.431Z,1035.45
2016-09-19T19:46:03.423Z,1035.52
2016-09-19T19:47:03.470Z,1035.5
2016-09-19T19:48:03.412Z,1035.55
2016-09-19T19:49:03.408Z,1035.57
2016-09-19T19:50:03.401Z,1035.61
2016-09-19T19:51:03.397Z,1035.65
2016-09-19T19:52:03.391Z,1035.63
2016-09-19T19:53:03.383Z,1035.63
2016-09-19T19:54:03.378Z,1035.69
2016-09-19T19:55:03.372Z,1035.71
2016-09-19T19:56:03.367Z,1035.75
2016-09-19T19:57:03.361Z,1035.72
2016-09-19T19:58:03.357Z,1035.74
2016-09-19T19:59:03.347Z,1035.73
2016-09-19T20:00:03.343Z,1035.77
2016-09-19T20:01:03.338Z,1035.74
2016-09-19T20:02:03.330Z,1035.72
2016-09-19T20:03:03.325Z,1035.75
2016-09-19T20:04:03.318Z,1035.79
2016-09-19T20:05:03.320Z,1035.77
2016-09-19T20:06:03.306Z,1035.81
2016-09-19T20:07:03.301Z,1035.82
2016-09-19T20:08:03.295Z,1035.84
2016-09-19T20:09:03.291Z,1035.85
2016-09-19T20:10:03.285Z,1035.81
2016-09-19T20:11:03.278Z,1035.81
2016-09-19T20:12:03.880Z,1035.82
2016-09-19T20:13:03.265Z,1035.81
2016-09-19T20:14:03.774Z,1035.82
2016-09-19T20:15:03.251Z,1035.84
2016-09-19T20:16:03.245Z,1035.8
2016-09-19T20:17:03.244Z,1035.84
2016-09-19T20:18:03.232Z,1035.85
2016-09-19T20:19:03.230Z,1035.83
2016-09-19T20:20:03.221Z,1035.9
2016-09-19T20:21:03.214Z,1035.9
2016-09-19T20:22:03.210Z,1035.9
2016-09-19T20:23:03.204Z,1035.88
2016-09-19T20:24:03.199Z,1035.95
2016-09-19T20:25:03.189Z,1035.94
2016-09-19T20:26:03.186Z,1035.93
2016-09-19T20:27:03.180Z,1035.95
2016-09-19T20:28:03.173Z,1035.99
2016-09-19T20:29:03.167Z,1035.99
2016-09-19T20:30:03.160Z,1036.01
2016-09-19T20:31:03.155Z,1036.01
2016-09-19T20:32:03.149Z,1036.03
2016-09-19T20:33:03.140Z,1036
2016-09-19T20:34:03.140Z,1036.02
2016-09-19T20:35:03.128Z,1036.02
2016-09-19T20:36:03.121Z,1036.06
2016-09-19T20:37:03.116Z,1036.04
2016-09-19T20:38:03.109Z,1036.06
2016-09-19T20:39:03.104Z,1036.05
2016-09-19T20:40:03.095Z,1036.07
2016-09-19T20:41:03.092Z,1036.04
2016-09-19T20:42:03.084Z,1036.02
2016-09-19T20:43:03.079Z,1036.04
2016-09-19T20:44:03.071Z,1036.03
2016-09-19T20:45:03.067Z,1036.03
2016-09-19T20:46:03.061Z,1036.04
2016-09-19T20:47:03.053Z,1036.04
2016-09-19T20:48:03.049Z,1036.04
2016-09-19T20:49:03.040Z,1036.04
2016-09-19T20:50:03.035Z,1036.05
2016-09-19T20:51:03.028Z,1036.01
2016-09-19T20:52:03.023Z,1036.06
2016-09-19T20:53:03.017Z,1036.02
2016-09-19T20:54:03.008Z,1036.03
2016-09-19T20:55:03.002Z,1036.05
2016-09-19T20:56:02.997Z,1036.09
2016-09-19T20:57:02.990Z,1036.06
2016-09-19T20:58:02.983Z,1036.06
2016-09-19T20:59:02.976Z,1036.06
2016-09-19T21:00:02.971Z,1036.08
2016-09-19T21:01:02.966Z,1036.06
2016-09-19T21:02:02.957Z,1036.06
2016-09-19T21:03:02.953Z,1036.07
2016-09-19T21:04:02.945Z,1036.08
2016-09-19T21:05:02.937Z,1036.07
2016-09-19T21:06:02.930Z,1036.09
2016-09-19T21:07:02.927Z,1036.1
2016-09-19T21:08:02.918Z,1036.08
2016-09-19T21:09:02.911Z,1036.1
2016-09-19T21:10:02.905Z,1036.11
2016-09-19T21:11:02.901Z,1036.09
2016-09-19T21:13:02.887Z,1036.12
2016-09-19T21:14:02.882Z,1036.15
2016-09-19T21:15:02.879Z,1036.17
2016-09-19T21:16:02.868Z,1036.17
2016-09-19T21:17:02.862Z,1036.21
2016-09-19T21:18:02.856Z,1036.21
2016-09-19T21:19:02.847Z,1036.19
2016-09-19T21:20:02.841Z,1036.22
2016-09-19T21:21:02.835Z,1036.19
2016-09-19T21:22:02.828Z,1036.2
2016-09-19T21:23:02.821Z,1036.24
2016-09-19T21:24:02.814Z,1036.25
2016-09-19T21:25:02.810Z,1036.28
2016-09-19T21:26:02.802Z,1036.28
2016-09-19T21:27:02.796Z,1036.29
2016-09-19T21:28:02.787Z,1036.34
2016-09-19T21:29:02.781Z,1036.36
2016-09-19T21:30:02.777Z,1036.36
2016-09-19T21:31:04.356Z,1036.33
2016-09-19T21:32:02.763Z,1036.29
2016-09-19T21:33:03.010Z,1036.33
2016-09-19T21:34:02.751Z,1036.33
2016-09-19T21:35:02.749Z,1036.37
2016-09-19T21:36:02.737Z,1036.35
2016-09-19T21:37:02.729Z,1036.36
2016-09-19T21:38:02.721Z,1036.36
2016-09-19T21:39:02.717Z,1036.41
2016-09-19T21:40:04.038Z,1036.37
2016-09-19T21:41:02.703Z,1036.35
2016-09-19T21:42:02.806Z,1036.34
2016-09-19T21:43:02.691Z,1036.36
2016-09-19T21:44:02.684Z,1036.36
2016-09-19T21:45:02.678Z,1036.35
2016-09-19T21:46:02.669Z,1036.34
2016-09-19T21:47:02.663Z,1036.38
2016-09-19T21:48:02.658Z,1036.39
2016-09-19T21:49:02.651Z,1036.36
2016-09-19T21:50:02.646Z,1036.41
2016-09-19T21:51:02.637Z,1036.42
2016-09-19T21:52:02.631Z,1036.43
2016-09-19T21:53:02.624Z,1036.43
2016-09-19T21:54:02.617Z,1036.42
2016-09-19T21:55:02.611Z,1036.46
2016-09-19T21:56:02.605Z,1036.46
2016-09-19T21:57:02.597Z,1036.48
2016-09-19T21:58:02.590Z,1036.42
2016-09-19T21:59:02.581Z,1036.48
2016-09-19T22:00:02.576Z,1036.45
2016-09-19T22:01:02.568Z,1036.46
2016-09-19T22:02:02.561Z,1036.47
2016-09-19T22:03:02.557Z,1036.4
2016-09-19T22:04:02.550Z,1036.44
2016-09-19T22:05:02.543Z,1036.44
2016-09-19T22:06:02.535Z,1036.43
2016-09-19T22:07:02.528Z,1036.42
2016-09-19T22:08:02.522Z,1036.45
2016-09-19T22:09:02.514Z,1036.42
2016-09-19T22:10:02.510Z,1036.39
2016-09-19T22:11:02.501Z,1036.42
2016-09-19T22:12:02.495Z,1036.42
2016-09-19T22:13:02.486Z,1036.4
2016-09-19T22:14:02.481Z,1036.41
2016-09-19T22:15:02.475Z,1036.46
2016-09-19T22:16:02.466Z,1036.38
2016-09-19T22:17:02.462Z,1036.41
2016-09-19T22:18:02.455Z,1036.4
2016-09-19T22:19:02.447Z,1036.41
2016-09-19T22:20:02.441Z,1036.41
2016-09-19T22:21:03.588Z,1036.38
2016-09-19T22:22:02.429Z,1036.37
2016-09-19T22:23:02.421Z,1036.4
2016-09-19T22:24:02.414Z,1036.4
2016-09-19T22:25:02.409Z,1036.38
2016-09-19T22:26:02.402Z,1036.38
2016-09-19T22:27:02.393Z,1036.41
2016-09-19T22:28:02.392Z,1036.38
2016-09-19T22:30:02.375Z,1036.39
2016-09-19T22:31:02.368Z,1036.38
2016-09-19T22:32:02.361Z,1036.36
2016-09-19T22:33:02.355Z,1036.33
2016-09-19T22:34:02.346Z,1036.32
2016-09-19T22:35:02.341Z,1036.31
2016-09-19T22:36:02.335Z,1036.33
2016-09-19T22:37:02.328Z,1036.29
2016-09-19T22:38:02.322Z,1036.23
2016-09-19T22:39:02.313Z,1036.24
2016-09-19T22:40:02.306Z,1036.21
2016-09-19T22:41:02.299Z,1036.18
2016-09-19T22:42:02.293Z,1036.15
2016-09-19T22:43:02.289Z,1036.14
2016-09-19T22:44:02.281Z,1036.1
2016-09-19T22:45:02.273Z,1036.09
2016-09-19T22:46:02.268Z,1036.09
2016-09-19T22:47:02.260Z,1036.11
2016-09-19T22:48:02.256Z,1036.09
2016-09-19T22:49:02.249Z,1036.08
2016-09-19T22:50:02.247Z,1036.07
2016-09-19T22:51:02.234Z,1036.07
2016-09-19T22:52:02.237Z,1036.05
2016-09-19T22:53:02.224Z,1036.03
2016-09-19T22:54:02.216Z,1035.97
2016-09-19T22:55:02.208Z,1035.91
2016-09-19T22:56:02.204Z,1035.93
2016-09-19T22:57:02.199Z,1035.94
2016-09-19T22:58:02.195Z,1035.95
2016-09-19T22:59:02.183Z,1035.95
2016-09-19T23:00:02.179Z,1035.98
2016-09-19T23:01:02.171Z,1035.98
2016-09-19T23:02:02.165Z,1035.94
2016-09-19T23:03:02.160Z,1035.92
2016-09-19T23:04:02.152Z,1035.89
2016-09-19T23:05:02.164Z,1035.88
2016-09-19T23:06:02.138Z,1035.89
2016-09-19T23:07:02.133Z,1035.88
2016-09-19T23:08:02.127Z,1035.93
2016-09-19T23:09:02.123Z,1035.96
2016-09-19T23:10:02.113Z,1035.92
2016-09-19T23:11:02.110Z,1035.95
2016-09-19T23:12:02.102Z,1035.96
2016-09-19T23:13:02.097Z,1035.96
2016-09-19T23:14:02.089Z,1035.91
2016-09-19T23:15:02.084Z,1035.9
2016-09-19T23:16:02.079Z,1035.95
2016-09-19T23:17:02.072Z,1035.9
2016-09-19T23:18:02.064Z,1035.92
2016-09-19T23:19:02.060Z,1035.93
2016-09-19T23:20:02.054Z,1035.91
2016-09-19T23:21:02.047Z,1035.92
2016-09-19T23:22:02.041Z,1035.91
2016-09-19T23:23:02.033Z,1035.92
2016-09-19T23:24:02.026Z,1035.98
2016-09-19T23:25:02.023Z,1035.97
2016-09-19T23:26:02.014Z,1035.99
2016-09-19T23:27:02.010Z,1035.98
2016-09-19T23:28:02.004Z,1035.98
2016-09-19T23:29:01.995Z,1035.99
2016-09-19T23:30:01.994Z,1035.95
2016-09-19T23:31:01.985Z,1036
2016-09-19T23:32:01.977Z,1036.03
2016-09-19T23:33:01.971Z,1036.05
2016-09-19T23:34:01.964Z,1036.1
2016-09-19T23:35:01.959Z,1036.06
2016-09-19T23:36:01.958Z,1036.09
2016-09-19T23:37:01.946Z,1036.06
2016-09-19T23:38:02.391Z,1036.07
2016-09-19T23:39:01.932Z,1036.09
2016-09-19T23:40:02.229Z,1036.07
2016-09-19T23:41:02.221Z,1036.11
2016-09-19T23:42:01.915Z,1036.11
2016-09-19T23:43:01.910Z,1036.11
2016-09-19T23:44:01.902Z,1036.07
2016-09-19T23:45:01.897Z,1036.09
2016-09-19T23:46:01.890Z,1036.06
2016-09-19T23:47:01.882Z,1036.09
2016-09-19T23:48:01.876Z,1036.08
2016-09-19T23:49:01.870Z,1036.08
2016-09-19T23:50:01.864Z,1036.09
2016-09-19T23:51:01.858Z,1036.05
2016-09-19T23:52:01.853Z,1036.1
2016-09-19T23:53:01.846Z,1036.04
2016-09-19T23:54:01.839Z,1036.07
2016-09-19T23:55:01.832Z,1036
2016-09-19T23:56:01.826Z,1035.98
2016-09-19T23:57:01.821Z,1035.96
2016-09-19T23:58:01.814Z,1035.91
2016-09-19T23:59:01.807Z,1035.9
